Time;durP1;ratioP1;P1;durP2;ratioP2;P2;SDS_P1;SDS_P2;PMS_P1;PMS_P2;Temp;Humidity;BMP_temperature;BMP_pressure;BME280_temperature;BME280_humidity;BME280_pressure;Samples;Min_cycle;Max_cycle;Signal;HPM_P1;HPM_P2
2023/06/15 00:03:16;;;;;;;10.03;6.77;;;;;;;8.14;100.00;96715.16;10486572;28;20238;-75
2023/06/15 00:08:17;;;;;;;8.07;6.77;;;;;;;8.12;100.00;96721.50;10498780;28;20191;-75
2023/06/15 00:13:17;;;;;;;9.20;7.50;;;;;;;8.13;100.00;96715.31;10498709;28;20299;-75
2023/06/15 00:18:18;;;;;;;7.37;6.40;;;;;;;8.12;100.00;96713.69;10498821;28;20195;-75
2023/06/15 00:23:18;;;;;;;8.03;6.57;;;;;;;8.17;100.00;96725.31;10497606;28;20191;-75
2023/06/15 00:28:19;;;;;;;7.33;6.40;;;;;;;8.23;100.00;96728.34;10498408;28;20199;-76
2023/06/15 00:33:21;;;;;;;10.33;6.13;;;;;;;8.28;100.00;96720.91;10496441;28;20218;-75
2023/06/15 00:38:23;;;;;;;9.23;6.53;;;;;;;8.28;100.00;96713.06;10497331;28;20203;-75
2023/06/15 00:43:24;;;;;;;10.93;6.13;;;;;;;8.21;100.00;96713.66;10496600;28;20643;-75
2023/06/15 00:48:25;;;;;;;8.60;6.17;;;;;;;8.27;100.00;96717.50;10495488;28;20279;-75
2023/06/15 00:53:26;;;;;;;7.63;6.23;;;;;;;8.32;100.00;96711.84;10495687;28;20219;-75
2023/06/15 00:58:26;;;;;;;9.00;6.40;;;;;;;8.32;100.00;96693.56;10494691;28;20662;-75
2023/06/15 01:03:30;;;;;;;8.40;5.90;;;;;;;8.33;100.00;96701.25;10495422;28;20231;-75
2023/06/15 01:08:32;;;;;;;7.93;6.23;;;;;;;8.37;100.00;96699.19;10497042;28;20229;-75
2023/06/15 01:13:34;;;;;;;6.80;6.03;;;;;;;8.53;100.00;96693.34;10494491;28;20647;-75
2023/06/15 01:18:36;;;;;;;7.80;6.43;;;;;;;8.59;100.00;96702.41;10495393;28;20647;-75
2023/06/15 01:23:50;;;;;;;6.83;5.90;;;;;;;8.60;100.00;96689.22;10494088;28;20218;-76
2023/06/15 01:28:52;;;;;;;7.77;5.40;;;;;;;8.69;100.00;96688.34;10479303;28;20195;-75
2023/06/15 01:33:53;;;;;;;6.77;4.80;;;;;;;8.71;100.00;96677.75;10494394;28;20268;-75
2023/06/15 01:38:56;;;;;;;6.53;5.27;;;;;;;8.82;100.00;96689.78;10495003;28;20361;-75
2023/06/15 01:43:58;;;;;;;7.00;5.33;;;;;;;8.89;100.00;96685.63;10494856;28;20191;-75
2023/06/15 01:48:59;;;;;;;7.40;5.30;;;;;;;9.05;100.00;96680.59;10495319;28;20210;-75
2023/06/15 01:54:00;;;;;;;8.27;4.90;;;;;;;9.02;100.00;96675.66;10493198;28;20226;-75
2023/06/15 01:59:00;;;;;;;5.90;5.27;;;;;;;8.99;100.00;96677.72;10493457;28;20187;-75
2023/06/15 02:04:00;;;;;;;9.53;5.43;;;;;;;9.05;100.00;96674.53;10492703;28;20242;-75
2023/06/15 02:09:01;;;;;;;5.57;4.60;;;;;;;8.96;100.00;96675.41;10494274;28;20254;-75
2023/06/15 02:14:01;;;;;;;6.10;5.50;;;;;;;8.98;100.00;96678.72;10492650;28;20219;-75
2023/06/15 02:19:03;;;;;;;6.60;5.00;;;;;;;8.99;100.00;96673.34;10491300;28;20194;-75
2023/06/15 02:24:05;;;;;;;5.93;4.57;;;;;;;8.99;100.00;96669.88;10492164;28;20663;-75
2023/06/15 02:29:05;;;;;;;7.20;4.37;;;;;;;8.99;100.00;96675.97;10492745;28;20670;-75
2023/06/15 02:34:06;;;;;;;6.93;4.40;;;;;;;9.01;100.00;96678.41;10491362;28;20226;-75
2023/06/15 02:39:06;;;;;;;6.20;5.03;;;;;;;9.02;100.00;96666.97;10491962;28;20219;-75
2023/06/15 02:44:07;;;;;;;7.43;4.73;;;;;;;9.10;100.00;96664.47;10474828;28;20328;-75
2023/06/15 02:49:09;;;;;;;7.47;5.00;;;;;;;9.20;100.00;96665.19;10468284;28;20192;-75
2023/06/15 02:54:12;;;;;;;5.83;5.23;;;;;;;9.16;100.00;96674.31;10449331;28;20216;-75
2023/06/15 02:59:13;;;;;;;8.30;4.43;;;;;;;9.19;100.00;96671.41;10450046;28;20180;-75
2023/06/15 03:04:30;;;;;;;6.27;4.97;;;;;;;9.23;100.00;96675.38;10447625;28;20699;-74
2023/06/15 03:09:33;;;;;;;5.87;4.77;;;;;;;9.17;100.00;96673.34;10429671;28;20196;-75
2023/06/15 03:14:35;;;;;;;6.20;4.70;;;;;;;9.17;100.00;96677.75;10446509;28;20276;-75
2023/06/15 03:19:36;;;;;;;8.33;4.90;;;;;;;9.18;100.00;96668.94;10445860;28;20187;-75
2023/06/15 03:24:37;;;;;;;7.80;4.70;;;;;;;9.18;100.00;96675.00;10445705;28;20187;-75
2023/06/15 03:29:37;;;;;;;5.60;4.97;;;;;;;9.12;100.00;96683.41;10428418;28;20184;-75
2023/06/15 03:34:38;;;;;;;5.90;5.17;;;;;;;9.13;100.00;96686.84;10446498;28;20310;-75
2023/06/15 03:39:38;;;;;;;6.23;4.73;;;;;;;9.17;100.00;96686.41;10452657;28;20576;-75
2023/06/15 03:44:39;;;;;;;6.57;4.50;;;;;;;9.20;100.00;96687.91;10453219;28;20188;-75
2023/06/15 03:49:40;;;;;;;5.60;4.37;;;;;;;9.14;100.00;96689.31;10452967;28;20180;-75
2023/06/15 03:54:40;;;;;;;5.07;4.37;;;;;;;9.18;100.00;96697.69;10452716;28;20776;-75
2023/06/15 03:59:41;;;;;;;8.17;5.07;;;;;;;9.14;100.00;96704.19;10453146;28;20245;-75
2023/06/15 04:04:41;;;;;;;5.47;4.47;;;;;;;9.19;100.00;96707.16;10456979;28;20224;-75
2023/06/15 04:09:41;;;;;;;6.50;4.33;;;;;;;9.27;100.00;96705.47;10480740;28;20736;-75
2023/06/15 04:14:43;;;;;;;5.87;4.13;;;;;;;9.33;100.00;96708.47;10496776;28;20214;-75
2023/06/15 04:19:44;;;;;;;8.20;5.83;;;;;;;9.44;100.00;96705.63;10481041;28;20195;-75
2023/06/15 04:24:44;;;;;;;6.80;4.30;;;;;;;9.57;100.00;96711.31;10498387;28;20244;-75
2023/06/15 04:29:49;;;;;;;6.70;4.40;;;;;;;9.61;100.00;96707.41;10497054;28;20210;-75
2023/06/15 04:34:54;;;;;;;5.07;4.37;;;;;;;9.67;100.00;96719.06;10496919;28;20211;-75
2023/06/15 04:39:59;;;;;;;8.30;4.70;;;;;;;9.76;100.00;96722.59;10496337;28;20613;-75
2023/06/15 04:45:00;;;;;;;7.70;5.13;;;;;;;9.75;100.00;96715.69;10496222;28;20290;-75
2023/06/15 04:50:00;;;;;;;7.33;4.50;;;;;;;9.79;100.00;96711.81;10495372;28;20278;-75
2023/06/15 04:55:01;;;;;;;6.97;4.70;;;;;;;9.83;100.00;96715.75;10495727;28;20223;-75
2023/06/15 05:00:06;;;;;;;6.83;4.87;;;;;;;9.93;100.00;96719.09;10495969;28;20183;-75
2023/06/15 05:05:10;;;;;;;6.07;4.47;;;;;;;10.24;100.00;96720.47;10495186;28;20238;-75
2023/06/15 05:10:11;;;;;;;5.30;4.77;;;;;;;10.57;100.00;96712.84;10496897;28;20180;-75
2023/06/15 05:15:11;;;;;;;6.18;4.50;;;;;;;10.70;100.00;96713.19;10496281;28;20577;-75
2023/06/15 05:20:13;;;;;;;5.53;4.70;;;;;;;10.61;100.00;96717.59;10495027;28;20179;-75
2023/06/15 05:25:14;;;;;;;8.07;4.28;;;;;;;10.85;100.00;96718.69;10494855;28;20179;-75
2023/06/15 05:30:15;;;;;;;6.00;4.38;;;;;;;11.11;100.00;96715.97;10494044;28;20214;-75
2023/06/15 05:35:16;;;;;;;7.00;4.70;;;;;;;11.19;100.00;96717.78;10465468;28;20212;-75
2023/06/15 05:40:18;;;;;;;8.27;5.00;;;;;;;11.53;100.00;96706.38;10452546;28;20215;-75
2023/06/15 05:45:19;;;;;;;6.22;4.00;;;;;;;11.75;100.00;96708.38;10452721;28;20195;-75
2023/06/15 05:50:19;;;;;;;6.05;4.30;;;;;;;11.75;100.00;96713.63;10452624;28;20210;-75
2023/06/15 05:55:20;;;;;;;6.28;4.88;;;;;;;11.92;100.00;96714.47;10435388;28;20303;-75
2023/06/15 06:00:25;;;;;;;8.90;4.75;;;;;;;12.12;100.00;96707.06;10453486;28;20699;-75
2023/06/15 06:05:30;;;;;;;6.40;4.80;;;;;;;12.25;100.00;96722.31;10451487;28;20224;-75
2023/06/15 06:10:30;;;;;;;8.40;4.90;;;;;;;12.44;100.00;96722.94;10451808;28;20199;-75
2023/06/15 06:15:51;;;;;;;7.25;4.32;;;;;;;12.56;100.00;96734.72;10447126;28;20318;-75
2023/06/15 06:20:51;;;;;;;6.72;4.53;;;;;;;12.72;100.00;96731.22;10466236;28;20279;-75
2023/06/15 06:25:51;;;;;;;5.90;4.03;;;;;;;12.80;100.00;96731.22;10450566;28;20220;-75
2023/06/15 06:30:53;;;;;;;5.82;4.38;;;;;;;13.01;100.00;96720.09;10451119;28;20192;-75
2023/06/15 06:35:54;;;;;;;6.63;4.95;;;;;;;13.26;100.00;96733.16;10451524;28;20219;-75
2023/06/15 06:40:54;;;;;;;7.32;4.32;;;;;;;13.71;100.00;96728.13;10451343;28;20212;-75
2023/06/15 06:45:54;;;;;;;8.90;4.40;;;;;;;13.91;100.00;96726.63;10462850;28;20190;-75
2023/06/15 06:50:55;;;;;;;6.00;4.70;;;;;;;14.25;100.00;96738.53;10468570;28;20180;-75
2023/06/15 06:55:55;;;;;;;5.82;5.00;;;;;;;14.38;100.00;96724.75;10466755;28;20348;-75
2023/06/15 07:00:55;;;;;;;4.60;4.20;;;;;;;14.76;100.00;96724.69;10444184;28;20200;-76
2023/06/15 07:05:56;;;;;;;6.28;4.63;;;;;;;15.13;99.66;96714.19;10446854;28;20241;-76
2023/06/15 07:10:56;;;;;;;6.82;5.13;;;;;;;15.54;95.00;96708.31;10482725;28;20191;-75
2023/06/15 07:15:57;;;;;;;7.75;4.93;;;;;;;15.54;89.38;96695.13;10489925;28;20302;-76
2023/06/15 07:20:58;;;;;;;8.73;4.60;;;;;;;15.83;88.41;96696.88;10490747;28;20704;-76
2023/06/15 07:25:58;;;;;;;5.05;4.05;;;;;;;16.21;84.44;96685.97;10477504;28;20179;-76
2023/06/15 07:30:59;;;;;;;5.32;4.55;;;;;;;16.57;82.46;96686.81;10449680;28;20195;-76
2023/06/15 07:35:59;;;;;;;7.82;4.70;;;;;;;16.25;80.90;96678.47;10449592;28;20587;-77
2023/06/15 07:40:59;;;;;;;7.80;4.05;;;;;;;16.41;79.81;96680.81;10489682;28;20217;-76
2023/06/15 07:46:00;;;;;;;7.63;4.50;;;;;;;15.61;86.15;96726.91;10490449;28;20253;-76
2023/06/15 07:51:00;;;;;;;4.97;3.97;;;;;;;15.41;95.19;96759.19;10489357;28;20318;-76
2023/06/15 07:56:00;;;;;;;8.77;5.10;;;;;;;14.67;100.00;96768.00;10471448;28;20238;-74
2023/06/15 08:01:01;;;;;;;9.05;5.22;;;;;;;13.88;100.00;96758.59;10483197;28;20229;-73
2023/06/15 08:06:01;;;;;;;9.25;5.22;;;;;;;13.13;100.00;96767.88;10447724;28;20535;-74
2023/06/15 08:11:02;;;;;;;9.20;5.47;;;;;;;13.22;100.00;96779.19;10471977;28;20566;-75
2023/06/15 08:16:02;;;;;;;6.30;5.28;;;;;;;13.68;100.00;96778.50;10489397;28;20215;-75
2023/06/15 08:21:03;;;;;;;9.68;5.40;;;;;;;13.63;100.00;96773.75;10488906;28;20195;-75
2023/06/15 08:26:03;;;;;;;10.30;5.57;;;;;;;14.24;100.00;96772.94;10494832;28;20640;-75
2023/06/15 08:31:03;;;;;;;6.78;5.47;;;;;;;15.05;100.00;96770.50;10495301;28;20663;-75
2023/06/15 08:36:11;;;;;;;7.63;6.43;;;;;;;14.36;100.00;96747.81;10494760;28;20742;-77
2023/06/15 08:41:12;;;;;;;12.55;6.38;;;;;;;14.26;100.00;96763.88;10495631;28;20215;-75
2023/06/15 08:46:12;;;;;;;8.40;5.80;;;;;;;13.42;100.00;96748.03;10482255;28;20233;-75
2023/06/15 08:51:12;;;;;;;8.00;6.00;;;;;;;13.26;100.00;96761.25;10496328;28;20187;-77
2023/06/15 08:56:13;;;;;;;7.82;5.68;;;;;;;13.66;100.00;96760.25;10494083;28;20262;-73
2023/06/15 09:01:13;;;;;;;8.10;5.45;;;;;;;13.84;100.00;96757.31;10488833;28;20345;-74
2023/06/15 09:06:14;;;;;;;6.25;5.50;;;;;;;14.24;100.00;96760.63;10494303;28;20187;-74
2023/06/15 09:11:16;;;;;;;8.57;5.30;;;;;;;14.51;100.00;96753.09;10491224;28;20195;-74
2023/06/15 09:16:16;;;;;;;8.63;5.38;;;;;;;14.64;100.00;96741.97;10493018;28;20215;-75
2023/06/15 09:21:18;;;;;;;5.03;4.53;;;;;;;15.10;100.00;96736.50;10494873;28;20191;-74
2023/06/15 09:26:26;;;;;;;6.03;5.38;;;;;;;15.59;100.00;96724.44;10492865;28;20665;-74
2023/06/15 09:31:30;;;;;;;6.47;4.93;;;;;;;16.20;100.00;96721.34;10494305;28;20633;-74
2023/06/15 09:36:34;;;;;;;6.60;4.28;;;;;;;16.78;100.00;96712.34;10493693;28;20211;-74
2023/06/15 09:41:35;;;;;;;6.03;3.70;;;;;;;16.92;85.27;96665.63;10493991;28;20187;-77
2023/06/15 09:46:38;;;;;;;8.93;3.75;;;;;;;16.80;86.64;96683.88;10493476;28;20199;-77
2023/06/15 09:51:38;;;;;;;7.22;3.53;;;;;;;16.94;89.16;96700.66;10493370;28;20938;-77
2023/06/15 09:56:40;;;;;;;6.80;4.35;;;;;;;17.55;81.41;96654.81;10493428;28;20306;-77
2023/06/15 10:01:44;;;;;;;5.30;3.85;;;;;;;18.21;77.68;96649.72;10491566;28;20482;-77
2023/06/15 10:06:50;;;;;;;5.10;3.72;;;;;;;18.08;75.12;96632.81;10491133;28;20694;-74
2023/06/15 10:11:52;;;;;;;6.72;3.88;;;;;;;18.57;74.47;96645.75;10492622;28;20195;-74
2023/06/15 10:17:01;;;;;;;8.05;4.20;;;;;;;18.20;75.09;96664.00;10490364;28;21350;-75
2023/06/15 10:22:03;;;;;;;8.93;4.13;;;;;;;19.34;70.01;96598.03;10490007;28;20214;-74
2023/06/15 10:27:05;;;;;;;8.23;4.68;;;;;;;19.82;67.84;96584.22;10491125;28;20183;-75
2023/06/15 10:32:16;;;;;;;7.13;4.10;;;;;;;19.21;67.98;96589.13;10487795;28;20615;-75
2023/06/15 10:37:22;;;;;;;5.88;3.97;;;;;;;19.75;65.21;96562.16;10489935;28;20314;-75
2023/06/15 10:42:25;;;;;;;6.07;4.15;;;;;;;19.37;65.30;96558.59;10489635;28;20629;-76
2023/06/15 10:47:26;;;;;;;6.82;3.53;;;;;;;18.63;66.82;96581.25;10490126;28;20217;-75
2023/06/15 10:52:33;;;;;;;12.25;4.30;;;;;;;17.88;68.44;96589.59;10489302;28;20305;-75
2023/06/15 10:57:35;;;;;;;7.60;3.90;;;;;;;18.87;64.71;96540.72;10490736;28;20219;-75
2023/06/15 11:02:35;;;;;;;15.65;4.05;;;;;;;18.81;61.56;96495.63;10490378;28;20258;-76
2023/06/15 11:07:37;;;;;;;7.03;3.60;;;;;;;19.07;63.45;96529.19;10490223;28;20198;-76
2023/06/15 11:12:41;;;;;;;4.78;3.35;;;;;;;20.23;60.27;96512.78;10489559;28;20219;-75
2023/06/15 11:17:58;;;;;;;7.80;3.70;;;;;;;20.29;56.49;96437.41;10490117;28;20370;-76
2023/06/15 11:22:59;;;;;;;5.55;3.30;;;;;;;22.19;54.40;96457.88;10489598;28;20304;-76
2023/06/15 11:28:00;;;;;;;10.35;3.90;;;;;;;23.44;49.85;96406.31;10488588;28;20954;-76
2023/06/15 11:33:00;;;;;;;4.85;3.30;;;;;;;24.71;47.67;96399.25;10488610;28;20191;-75
2023/06/15 11:38:01;;;;;;;4.72;3.30;;;;;;;25.63;44.37;96356.97;10488894;28;20302;-76
2023/06/15 11:49:34;;;;;;;6.53;3.20;;;;;;;24.44;43.95;96313.53;10428669;28;20291;-76
2023/06/15 11:54:35;;;;;;;18.35;4.22;;;;;;;22.15;46.58;96303.84;10464811;28;20732;-76
2023/06/15 11:59:35;;;;;;;11.23;3.58;;;;;;;22.77;50.67;96407.97;10479876;28;20196;-76
2023/06/15 12:04:36;;;;;;;5.15;3.50;;;;;;;24.25;49.17;96418.31;10452652;28;20285;-77
2023/06/15 12:09:36;;;;;;;8.38;3.38;;;;;;;24.93;48.79;96425.94;10455009;28;20334;-75
2023/06/15 12:14:41;;;;;;;5.95;3.40;;;;;;;24.49;49.37;96423.41;10453801;28;20277;-76
2023/06/15 12:19:42;;;;;;;4.93;2.97;;;;;;;23.60;48.46;96390.47;10474257;28;20191;-76
2023/06/15 12:24:42;;;;;;;5.78;2.60;;;;;;;23.60;48.42;96399.31;10495728;28;20639;-75
2023/06/15 12:29:42;;;;;;;6.32;3.00;;;;;;;22.15;50.49;96397.22;10494413;28;20329;-76
2023/06/15 12:34:43;;;;;;;4.75;3.40;;;;;;;21.59;51.79;96424.34;10495811;28;20214;-76
2023/06/15 12:39:44;;;;;;;4.20;3.20;;;;;;;21.79;51.99;96433.84;10495703;28;20349;-76
2023/06/15 12:44:44;;;;;;;4.72;3.75;;;;;;;21.40;54.49;96468.97;10493328;28;20187;-75
2023/06/15 12:49:45;;;;;;;7.15;3.13;;;;;;;21.60;53.75;96454.50;10468264;28;20204;-75
2023/06/15 12:54:45;;;;;;;4.43;2.63;;;;;;;21.37;50.26;96379.63;10453927;28;20215;-75
2023/06/15 12:59:46;;;;;;;2.55;2.15;;;;;;;21.51;48.81;96350.09;10479098;28;20274;-75
2023/06/15 13:04:46;;;;;;;3.10;2.33;;;;;;;21.25;51.40;96402.00;10495095;28;20235;-75
2023/06/15 13:09:47;;;;;;;4.78;2.75;;;;;;;20.42;51.64;96386.69;10493997;28;20281;-76
2023/06/15 13:14:47;;;;;;;4.18;2.70;;;;;;;19.42;55.04;96411.81;10492769;28;20766;-75
2023/06/15 13:19:47;;;;;;;5.45;2.72;;;;;;;17.62;59.08;96442.88;10493082;28;20675;-75
2023/06/15 13:24:48;;;;;;;4.47;2.83;;;;;;;15.76;73.50;96602.69;10493729;28;20662;-75
2023/06/15 13:29:48;;;;;;;3.28;2.65;;;;;;;15.36;80.25;96587.34;10489559;28;20195;-76
2023/06/15 13:34:48;;;;;;;4.30;3.08;;;;;;;15.40;82.16;96588.59;10472585;28;20607;-74
2023/06/15 13:39:49;;;;;;;4.18;3.10;;;;;;;15.81;79.36;96573.91;10489515;28;20708;-73
2023/06/15 13:44:49;;;;;;;5.00;2.90;;;;;;;16.19;76.86;96555.03;10487854;28;20530;-72
2023/06/15 13:49:49;;;;;;;2.85;2.47;;;;;;;16.01;73.60;96522.00;10455030;28;20599;-72
2023/06/15 13:54:50;;;;;;;10.50;2.95;;;;;;;16.19;71.95;96512.75;10470930;28;20677;-72
2023/06/15 13:59:50;;;;;;;4.55;2.78;;;;;;;16.36;72.46;96524.59;10491303;28;20604;-72
2023/06/15 14:04:52;;;;;;;2.92;2.60;;;;;;;16.38;70.07;96490.84;10470648;28;20255;-72
2023/06/15 14:09:52;;;;;;;2.42;2.20;;;;;;;16.25;69.96;96493.44;10465384;28;20647;-72
2023/06/15 14:14:53;;;;;;;3.78;2.30;;;;;;;16.44;68.72;96483.13;10469057;28;20211;-72
2023/06/15 14:19:53;;;;;;;4.15;2.20;;;;;;;16.44;67.53;96477.84;10469410;28;20314;-71
2023/06/15 14:24:54;;;;;;;3.22;2.20;;;;;;;16.79;66.68;96457.38;10471354;28;20191;-72
2023/06/15 14:29:54;;;;;;;3.72;2.60;;;;;;;16.87;64.46;96429.94;10477199;28;20202;-72
2023/06/15 14:34:54;;;;;;;7.65;2.53;;;;;;;17.43;62.56;96410.13;10483725;28;20210;-72
2023/06/15 14:39:55;;;;;;;3.72;2.33;;;;;;;18.03;59.71;96356.94;10490506;28;20656;-72
2023/06/15 14:45:17;;;;;;;4.20;2.50;;;;;;;18.20;60.14;96377.66;10491364;28;20677;-73
2023/06/15 14:50:44;;;;;;;4.43;2.80;;;;;;;18.37;60.16;96378.75;10448125;28;20667;-74
2023/06/15 14:55:45;;;;;;;4.13;2.92;;;;;;;20.19;53.81;96307.63;10448812;28;20956;-73
2023/06/15 15:00:45;;;;;;;4.38;3.05;;;;;;;19.54;54.93;96306.44;10449055;28;20206;-72
2023/06/15 15:05:45;;;;;;;7.40;2.90;;;;;;;19.67;56.39;96342.66;10455310;28;20227;-72
2023/06/15 15:10:46;;;;;;;5.68;3.40;;;;;;;19.43;58.09;96369.09;10476850;28;20194;-71
2023/06/15 15:15:46;;;;;;;3.42;2.67;;;;;;;19.63;57.79;96372.56;10449473;28;20220;-71
2023/06/15 15:20:47;;;;;;;3.50;2.70;;;;;;;18.92;57.61;96348.16;10448828;28;20291;-72
2023/06/15 15:25:47;;;;;;;8.48;3.17;;;;;;;18.32;60.11;96378.59;10454616;28;20191;-72
2023/06/15 15:30:48;;;;;;;4.78;3.20;;;;;;;18.17;60.56;96379.69;10490633;28;20187;-72
2023/06/15 15:35:48;;;;;;;6.78;3.50;;;;;;;19.65;56.65;96343.91;10497888;28;20226;-72
2023/06/15 15:40:48;;;;;;;11.73;3.50;;;;;;;20.87;54.65;96334.03;10498012;28;20301;-71
2023/06/15 15:45:49;;;;;;;4.15;3.28;;;;;;;21.63;53.98;96323.41;10497947;28;20183;-71
2023/06/15 15:50:49;;;;;;;11.90;3.25;;;;;;;22.02;51.68;96295.09;10496846;28;20190;-72
2023/06/15 15:55:49;;;;;;;6.93;3.33;;;;;;;21.05;49.89;96231.88;10497307;28;20275;-72
2023/06/15 16:00:50;;;;;;;8.40;3.35;;;;;;;21.39;49.41;96235.50;10497605;28;20602;-72
2023/06/15 16:05:51;;;;;;;6.32;3.13;;;;;;;22.52;48.59;96258.03;10454830;28;20577;-72
2023/06/15 16:10:51;;;;;;;7.43;3.25;;;;;;;22.87;46.47;96222.22;10453646;28;20330;-72
2023/06/15 16:15:52;;;;;;;7.13;3.20;;;;;;;22.34;47.99;96256.41;10435272;28;20255;-72
2023/06/15 16:20:52;;;;;;;8.25;3.20;;;;;;;22.72;48.35;96268.19;10429911;28;20276;-71
2023/06/15 16:25:52;;;;;;;8.85;3.83;;;;;;;21.86;51.19;96303.84;10430076;28;20189;-71
2023/06/15 16:30:53;;;;;;;18.08;3.75;;;;;;;21.73;51.73;96318.28;10415310;28;20189;-71
2023/06/15 16:35:53;;;;;;;5.95;3.35;;;;;;;21.23;54.67;96359.59;10415453;28;20312;-72
2023/06/15 16:40:54;;;;;;;7.40;4.15;;;;;;;20.67;52.62;96298.72;10414769;28;20208;-71
2023/06/15 16:45:54;;;;;;;12.27;4.10;;;;;;;20.49;53.71;96326.22;10412454;28;20193;-72
2023/06/15 16:50:54;;;;;;;6.85;4.20;;;;;;;19.59;54.69;96321.72;10414012;28;20238;-72
2023/06/15 16:55:55;;;;;;;7.13;3.85;;;;;;;19.19;56.71;96360.16;10413781;28;20256;-72
2023/06/15 17:00:55;;;;;;;9.70;4.28;;;;;;;19.32;56.29;96353.88;10414619;28;20251;-72
2023/06/15 17:05:55;;;;;;;6.93;4.00;;;;;;;19.43;56.49;96373.59;10454480;28;20634;-72
2023/06/15 17:10:56;;;;;;;7.57;4.25;;;;;;;19.29;57.28;96394.16;10463310;28;20560;-72
2023/06/15 17:15:56;;;;;;;7.75;3.58;;;;;;;18.94;58.50;96401.84;10496410;28;20664;-72
2023/06/15 17:20:57;;;;;;;7.70;4.30;;;;;;;19.06;58.87;96419.47;10496537;28;20652;-72
2023/06/15 17:25:57;;;;;;;4.93;3.83;;;;;;;19.30;57.84;96397.66;10495854;28;20944;-72
2023/06/15 17:30:58;;;;;;;7.68;3.75;;;;;;;19.93;56.69;96393.91;10493909;28;20611;-72
2023/06/15 17:35:58;;;;;;;10.35;4.10;;;;;;;20.08;57.79;96417.44;10494394;28;20697;-72
2023/06/15 17:40:59;;;;;;;16.90;4.43;;;;;;;19.89;56.93;96406.84;10495294;28;20594;-72
2023/06/15 17:46:00;;;;;;;5.40;3.75;;;;;;;19.35;57.75;96403.09;10495539;28;20180;-72
2023/06/15 17:51:00;;;;;;;4.85;3.72;;;;;;;19.33;60.15;96453.00;10494667;28;20852;-72
2023/06/15 17:56:01;;;;;;;6.75;3.90;;;;;;;19.06;60.73;96448.69;10494711;28;20614;-72
2023/06/15 18:01:01;;;;;;;7.70;4.05;;;;;;;19.07;60.00;96447.66;10494451;28;20962;-72
2023/06/15 18:06:02;;;;;;;6.70;3.92;;;;;;;18.83;61.20;96449.25;10494321;28;20194;-72
2023/06/15 18:11:03;;;;;;;6.88;4.18;;;;;;;18.59;62.07;96460.63;10493952;28;20198;-72
2023/06/15 18:16:04;;;;;;;6.63;4.53;;;;;;;18.34;61.85;96445.47;10492752;28;20223;-72
2023/06/15 18:21:04;;;;;;;13.23;4.57;;;;;;;18.05;63.96;96487.41;10493109;28;20585;-72
2023/06/15 18:26:05;;;;;;;6.82;4.38;;;;;;;17.77;65.28;96493.78;10472187;28;20187;-72
2023/06/15 18:31:05;;;;;;;7.40;4.03;;;;;;;17.60;66.66;96504.00;10474775;28;20667;-72
2023/06/15 18:36:06;;;;;;;11.90;5.18;;;;;;;17.38;67.98;96521.97;10468559;28;20230;-72
2023/06/15 18:41:06;;;;;;;164.20;78.05;;;;;;;16.83;70.57;96542.44;10472073;28;20221;-72
2023/06/15 18:46:06;;;;;;;8.77;5.90;;;;;;;15.39;78.41;96578.22;10453347;28;20606;-72
2023/06/15 18:51:07;;;;;;;11.48;6.00;;;;;;;14.82;83.09;96558.81;10450522;28;20295;-72
2023/06/15 18:56:07;;;;;;;6.85;5.18;;;;;;;14.51;85.40;96565.13;10450293;28;20271;-72
2023/06/15 19:01:07;;;;;;;18.15;10.63;;;;;;;13.87;91.00;96572.63;10453736;28;20187;-72
2023/06/15 19:06:08;;;;;;;13.13;5.95;;;;;;;13.76;94.38;96572.25;10469065;28;20325;-72
2023/06/15 19:11:08;;;;;;;15.50;5.63;;;;;;;13.55;98.46;96573.75;10470246;28;20188;-72
2023/06/15 19:16:08;;;;;;;8.55;4.93;;;;;;;13.42;100.00;96576.19;10469325;28;20308;-71
2023/06/15 19:21:09;;;;;;;8.50;5.28;;;;;;;13.27;100.00;96571.66;10468030;28;20731;-70
2023/06/15 19:26:13;;;;;;;9.90;5.35;;;;;;;12.95;100.00;96572.72;10457312;28;20543;-72
2023/06/15 19:31:14;;;;;;;7.65;5.00;;;;;;;12.94;100.00;96579.81;10456685;28;20275;-72
2023/06/15 19:36:14;;;;;;;12.38;5.40;;;;;;;12.84;100.00;96587.91;10470791;28;20686;-71
2023/06/15 19:41:15;;;;;;;7.65;4.72;;;;;;;12.74;100.00;96582.06;10469728;28;20718;-72
2023/06/15 19:46:15;;;;;;;9.05;5.00;;;;;;;12.78;100.00;96598.28;10467638;28;20191;-72
2023/06/15 19:51:15;;;;;;;8.35;4.75;;;;;;;12.75;100.00;96594.19;10466130;28;20184;-72
2023/06/15 19:56:16;;;;;;;6.70;5.25;;;;;;;12.66;100.00;96596.06;10479625;28;20245;-72
2023/06/15 20:01:16;;;;;;;6.47;5.32;;;;;;;12.79;100.00;96600.75;10491068;28;20679;-72
2023/06/15 20:06:17;;;;;;;9.30;5.32;;;;;;;12.67;100.00;96594.25;10491067;28;20616;-72
2023/06/15 20:11:17;;;;;;;9.25;5.28;;;;;;;12.62;100.00;96592.13;10490924;28;20278;-73
2023/06/15 20:16:18;;;;;;;8.70;4.85;;;;;;;12.44;100.00;96589.75;10478696;28;20218;-72
2023/06/15 20:21:20;;;;;;;7.70;5.13;;;;;;;12.40;100.00;96587.63;10473537;28;20919;-73
2023/06/15 20:26:20;;;;;;;9.32;4.63;;;;;;;12.24;100.00;96591.97;10437727;28;20542;-73
2023/06/15 20:31:22;;;;;;;6.35;4.13;;;;;;;12.30;100.00;96598.38;10464813;28;20195;-73
2023/06/15 20:36:25;;;;;;;5.60;4.57;;;;;;;12.24;100.00;96591.97;10496926;28;20314;-72
2023/06/15 20:41:26;;;;;;;6.20;4.72;;;;;;;12.07;100.00;96595.66;10497596;28;20188;-73
2023/06/15 20:46:27;;;;;;;7.32;4.78;;;;;;;11.94;100.00;96598.78;10496508;28;20184;-73
2023/06/15 20:51:28;;;;;;;6.47;5.10;;;;;;;11.90;100.00;96600.91;10497316;28;21041;-73
2023/06/15 20:56:28;;;;;;;7.20;4.50;;;;;;;11.85;100.00;96605.00;10496889;28;20309;-73
2023/06/15 21:01:28;;;;;;;6.10;4.65;;;;;;;11.81;100.00;96599.28;10497124;28;20281;-72
2023/06/15 21:06:29;;;;;;;8.45;4.75;;;;;;;11.71;100.00;96604.69;10496463;28;20191;-72
2023/06/15 21:11:29;;;;;;;5.32;4.78;;;;;;;11.61;100.00;96593.56;10496656;28;20244;-73
2023/06/15 21:16:30;;;;;;;7.35;4.50;;;;;;;11.58;100.00;96592.09;10496449;28;20222;-72
2023/06/15 21:21:30;;;;;;;8.32;4.45;;;;;;;11.49;100.00;96593.09;10496379;28;20281;-72
2023/06/15 21:26:30;;;;;;;7.40;4.43;;;;;;;11.37;100.00;96587.34;10495989;28;20192;-72
2023/06/15 21:31:31;;;;;;;7.78;4.93;;;;;;;11.35;100.00;96588.53;10495693;28;20183;-72
2023/06/15 21:36:31;;;;;;;5.93;4.07;;;;;;;11.19;100.00;96591.94;10495440;28;20226;-72
2023/06/15 21:41:31;;;;;;;6.55;5.20;;;;;;;11.06;100.00;96597.69;10495887;28;20610;-72
2023/06/15 21:46:32;;;;;;;7.03;4.50;;;;;;;11.03;100.00;96598.81;10495423;28;20551;-73
2023/06/15 21:51:33;;;;;;;8.05;5.20;;;;;;;10.95;100.00;96596.19;10495379;28;20936;-73
2023/06/15 21:56:33;;;;;;;6.57;5.00;;;;;;;10.93;100.00;96590.25;10494758;28;20349;-72
2023/06/15 22:01:34;;;;;;;5.63;4.63;;;;;;;10.96;100.00;96592.56;10494556;28;20231;-72
2023/06/15 22:06:35;;;;;;;8.07;4.88;;;;;;;10.91;100.00;96592.25;10494318;28;20323;-73
2023/06/15 22:11:35;;;;;;;8.70;5.23;;;;;;;10.89;100.00;96591.59;10493909;28;20191;-73
2023/06/15 22:16:39;;;;;;;6.40;5.20;;;;;;;10.76;100.00;96584.19;10494122;28;20583;-72
2023/06/15 22:21:40;;;;;;;6.50;5.00;;;;;;;10.67;100.00;96593.00;10493573;28;20187;-72
2023/06/15 22:26:43;;;;;;;10.17;5.50;;;;;;;10.60;100.00;96592.03;10493724;28;20187;-73
2023/06/15 22:31:48;;;;;;;6.40;5.20;;;;;;;10.55;100.00;96591.66;10493797;28;20206;-72
2023/06/15 22:36:49;;;;;;;10.47;5.10;;;;;;;10.53;100.00;96573.50;10493285;28;20235;-72
2023/06/15 22:41:49;;;;;;;7.77;5.33;;;;;;;10.44;100.00;96580.50;10492472;28;20563;-73
2023/06/15 22:46:49;;;;;;;10.13;5.43;;;;;;;10.35;100.00;96581.44;10492794;28;20191;-72
2023/06/15 22:51:51;;;;;;;9.03;5.57;;;;;;;10.24;100.00;96579.09;10492670;28;20201;-72
2023/06/15 22:56:52;;;;;;;5.70;4.87;;;;;;;10.27;100.00;96574.34;10492395;28;20228;-72
2023/06/15 23:01:52;;;;;;;10.40;4.80;;;;;;;10.31;100.00;96567.00;10492276;28;20235;-72
2023/06/15 23:06:52;;;;;;;8.57;4.50;;;;;;;10.40;100.00;96578.34;10492124;28;20183;-73
2023/06/15 23:11:53;;;;;;;7.60;5.47;;;;;;;10.43;100.00;96584.09;10492529;28;20187;-72
2023/06/15 23:16:53;;;;;;;10.30;5.40;;;;;;;10.41;100.00;96572.94;10492138;28;20321;-72
2023/06/15 23:21:55;;;;;;;5.90;5.17;;;;;;;10.39;100.00;96564.44;10491967;28;20201;-72